createdAt,value
2018-12-04T00:01:35.248Z,2.20
2018-12-04T00:04:03.116Z,2.30
2018-12-04T00:06:30.992Z,1.93
2018-12-04T00:08:58.795Z,2.37
2018-12-04T00:11:26.675Z,1.93
2018-12-04T00:13:54.534Z,2.00
2018-12-04T00:16:22.355Z,1.90
2018-12-04T00:18:50.253Z,1.80
2018-12-04T00:21:18.116Z,1.87
2018-12-04T00:23:46.274Z,2.00
2018-12-04T00:26:14.114Z,1.90
2018-12-04T00:28:41.995Z,2.23
2018-12-04T00:31:09.882Z,2.77
2018-12-04T00:33:37.731Z,1.70
2018-12-04T00:36:05.605Z,2.60
2018-12-04T00:38:33.465Z,1.90
2018-12-04T00:41:01.438Z,1.93
2018-12-04T00:43:29.303Z,1.60
2018-12-04T00:45:57.152Z,1.83
2018-12-04T00:48:24.984Z,1.50
2018-12-04T00:50:52.771Z,1.90
2018-12-04T00:53:20.602Z,2.07
2018-12-04T00:55:48.651Z,2.33
2018-12-04T00:58:16.468Z,1.60
2018-12-04T01:00:44.274Z,1.90
2018-12-04T01:03:12.277Z,1.90
2018-12-04T01:05:40.099Z,2.23
2018-12-04T01:08:07.922Z,2.00
2018-12-04T01:10:35.928Z,1.67
2018-12-04T01:13:03.802Z,2.07
2018-12-04T01:15:31.789Z,1.67
2018-12-04T01:17:59.666Z,2.03
2018-12-04T01:20:27.622Z,1.73
2018-12-04T01:22:55.446Z,1.93
2018-12-04T01:25:23.296Z,1.77
2018-12-04T01:27:51.139Z,1.90
2018-12-04T01:30:18.967Z,1.83
2018-12-04T01:32:46.807Z,1.87
2018-12-04T01:35:14.666Z,2.20
2018-12-04T01:37:42.513Z,2.00
2018-12-04T01:40:10.462Z,2.37
2018-12-04T01:42:38.338Z,1.73
2018-12-04T01:45:06.799Z,1.77
2018-12-04T01:47:34.619Z,1.83
2018-12-04T01:50:02.873Z,1.90
2018-12-04T01:52:30.744Z,2.00
2018-12-04T01:54:58.607Z,2.33
2018-12-04T01:57:26.497Z,1.93
2018-12-04T01:59:54.367Z,1.60
2018-12-04T02:02:22.271Z,1.97
2018-12-04T02:04:50.109Z,2.20
2018-12-04T02:07:18.019Z,2.10
2018-12-04T02:09:45.859Z,1.97
2018-12-04T02:12:13.701Z,2.23
2018-12-04T02:14:41.668Z,2.17
2018-12-04T02:17:09.499Z,1.93
2018-12-04T02:19:37.383Z,1.80
2018-12-04T02:22:05.324Z,2.27
2018-12-04T02:24:33.251Z,1.80
2018-12-04T02:27:01.099Z,1.70
2018-12-04T02:29:28.983Z,2.20
2018-12-04T02:31:56.863Z,1.67
2018-12-04T02:34:24.764Z,2.33
2018-12-04T02:36:52.615Z,1.90
2018-12-04T02:39:20.524Z,1.87
2018-12-04T02:41:48.428Z,2.20
2018-12-04T02:44:16.307Z,2.20
2018-12-04T02:46:44.378Z,3.23
2018-12-04T02:49:12.282Z,1.93
2018-12-04T02:51:40.140Z,1.90
2018-12-04T02:54:08.100Z,1.63
2018-12-04T02:56:35.986Z,2.10
2018-12-04T02:59:04.001Z,1.97
2018-12-04T03:01:31.907Z,2.90
2018-12-04T03:03:59.816Z,1.57
2018-12-04T03:06:27.737Z,1.53
2018-12-04T03:08:55.596Z,1.67
2018-12-04T03:11:23.453Z,1.60
2018-12-04T03:13:51.722Z,1.80
2018-12-04T03:16:19.622Z,2.03
2018-12-04T03:18:47.486Z,1.77
2018-12-04T03:21:15.356Z,1.50
2018-12-04T03:23:43.198Z,1.73
2018-12-04T03:26:11.092Z,1.53
2018-12-04T03:28:39.109Z,1.67
2018-12-04T03:31:06.987Z,1.90
2018-12-04T03:33:38.119Z,2.87
2018-12-04T03:36:06.486Z,1.90
2018-12-04T03:38:34.347Z,1.80
2018-12-04T03:41:02.633Z,2.60
2018-12-04T03:43:30.846Z,1.80
2018-12-04T03:45:58.805Z,2.07
2018-12-04T03:48:26.741Z,2.10
2018-12-04T03:50:54.636Z,2.10
2018-12-04T03:53:22.500Z,2.20
2018-12-04T03:55:50.384Z,1.93
2018-12-04T03:58:18.316Z,2.00
2018-12-04T04:00:46.249Z,1.90
2018-12-04T04:05:48.771Z,2.90
2018-12-04T04:08:16.889Z,2.57
2018-12-04T04:10:44.788Z,1.97
2018-12-04T04:13:12.685Z,2.03
2018-12-04T04:15:40.827Z,1.93
2018-12-04T04:18:08.694Z,1.70
2018-12-04T04:20:36.580Z,2.17
2018-12-04T04:23:04.465Z,2.13
2018-12-04T04:25:32.476Z,3.00
2018-12-04T04:28:00.319Z,2.67
2018-12-04T04:30:28.257Z,1.93
2018-12-04T04:32:56.143Z,1.87
2018-12-04T04:35:24.050Z,1.80
2018-12-04T04:37:52.248Z,1.80
2018-12-04T04:42:54.796Z,1.87
2018-12-04T04:45:22.814Z,2.43
2018-12-04T04:47:50.817Z,2.00
2018-12-04T04:50:18.701Z,2.33
2018-12-04T04:52:46.591Z,2.33
2018-12-04T04:55:14.523Z,2.53
2018-12-04T04:57:42.409Z,2.00
2018-12-04T05:00:10.359Z,3.63
2018-12-04T05:02:38.303Z,2.00
2018-12-04T05:05:06.224Z,1.90
2018-12-04T05:07:34.055Z,1.87
2018-12-04T05:10:01.934Z,2.33
2018-12-04T05:12:29.901Z,1.90
2018-12-04T05:14:57.819Z,1.93
2018-12-04T05:17:25.727Z,1.77
2018-12-04T05:19:53.609Z,2.30
2018-12-04T05:22:21.500Z,3.10
2018-12-04T05:24:49.558Z,2.77
2018-12-04T05:27:17.484Z,2.63
2018-12-04T05:29:45.333Z,2.27
2018-12-04T05:32:13.297Z,2.67
2018-12-04T05:34:41.329Z,1.93
2018-12-04T05:37:09.179Z,2.07
2018-12-04T05:39:37.105Z,2.20
2018-12-04T05:42:04.985Z,2.63
2018-12-04T05:44:32.828Z,2.00
2018-12-04T05:47:00.743Z,2.77
2018-12-04T05:49:28.637Z,2.23
2018-12-04T05:51:56.495Z,2.40
2018-12-04T05:54:24.425Z,1.93
2018-12-04T05:56:52.349Z,1.93
2018-12-04T05:59:20.224Z,2.00
2018-12-04T06:01:48.128Z,2.03
2018-12-04T06:04:16.203Z,1.80
2018-12-04T06:06:44.231Z,1.90
2018-12-04T06:09:12.176Z,2.07
2018-12-04T06:11:40.070Z,2.10
2018-12-04T06:14:07.988Z,2.60
2018-12-04T06:16:35.840Z,2.23
2018-12-04T06:19:04.059Z,2.87
2018-12-04T06:21:31.962Z,2.00
2018-12-04T06:23:59.836Z,2.50
2018-12-04T06:26:28.889Z,1.80
2018-12-04T06:28:56.986Z,1.93
2018-12-04T06:31:24.865Z,1.90
2018-12-04T06:33:52.828Z,2.00
2018-12-04T06:36:20.721Z,1.90
2018-12-04T06:38:48.730Z,1.67
2018-12-04T06:41:16.611Z,3.10
2018-12-04T06:43:44.493Z,2.53
2018-12-04T06:46:12.443Z,2.60
2018-12-04T06:48:40.384Z,2.83
2018-12-04T06:51:08.272Z,1.90
2018-12-04T06:53:36.200Z,2.23
2018-12-04T06:56:04.111Z,2.07
2018-12-04T06:58:32.047Z,2.40
2018-12-04T07:00:59.990Z,2.37
2018-12-04T07:03:27.891Z,2.20
2018-12-04T07:05:56.439Z,1.97
2018-12-04T07:08:24.336Z,2.40
2018-12-04T07:10:52.216Z,2.30
2018-12-04T07:13:20.106Z,1.83
2018-12-04T07:15:47.986Z,2.77
2018-12-04T07:18:15.952Z,2.70
2018-12-04T07:20:43.831Z,2.10
2018-12-04T07:23:11.704Z,2.97
2018-12-04T07:25:39.590Z,2.40
2018-12-04T07:28:07.475Z,2.10
2018-12-04T07:30:35.385Z,2.57
2018-12-04T07:33:03.359Z,1.77
2018-12-04T07:35:31.240Z,2.00
2018-12-04T07:37:59.100Z,2.33
2018-12-04T07:40:27.020Z,1.97
2018-12-04T07:42:54.935Z,2.30
2018-12-04T07:45:22.920Z,1.80
2018-12-04T07:47:50.750Z,1.90
2018-12-04T07:50:18.644Z,2.17
2018-12-04T07:52:46.552Z,1.80
2018-12-04T07:55:14.436Z,2.93
2018-12-04T07:57:42.375Z,1.70
2018-12-04T08:00:10.287Z,2.43
2018-12-04T08:02:38.301Z,2.20
2018-12-04T08:05:06.360Z,2.37
2018-12-04T08:07:34.281Z,2.30
2018-12-04T08:10:02.253Z,2.37
2018-12-04T08:12:30.135Z,2.00
2018-12-04T08:14:58.034Z,1.77
2018-12-04T08:17:25.927Z,2.10
2018-12-04T08:19:53.813Z,2.17
2018-12-04T08:22:21.677Z,1.90
2018-12-04T08:24:49.651Z,2.50
2018-12-04T08:27:24.641Z,2.17
2018-12-04T08:29:52.549Z,2.20
2018-12-04T08:32:20.437Z,2.73
2018-12-04T08:34:48.366Z,2.50
2018-12-04T08:37:16.347Z,2.43
2018-12-04T08:39:44.388Z,2.40
2018-12-04T08:42:12.249Z,2.40
2018-12-04T08:44:40.158Z,2.90
2018-12-04T08:47:08.256Z,2.17
2018-12-04T08:49:36.131Z,2.27
2018-12-04T08:52:04.146Z,2.43
2018-12-04T08:54:32.657Z,2.40
2018-12-04T08:57:00.607Z,2.63
2018-12-04T08:59:28.555Z,2.40
2018-12-04T09:01:56.432Z,2.30
2018-12-04T09:04:24.358Z,2.70
2018-12-04T09:06:52.300Z,2.60
2018-12-04T09:09:20.283Z,2.67
2018-12-04T09:11:48.177Z,2.03
2018-12-04T09:14:16.105Z,2.10
2018-12-04T09:16:43.945Z,2.17
2018-12-04T09:19:11.953Z,2.90
2018-12-04T09:21:40.096Z,2.60
2018-12-04T09:24:08.149Z,2.30
2018-12-04T09:26:36.084Z,2.03
2018-12-04T09:29:04.026Z,1.83
2018-12-04T09:31:31.964Z,2.17
2018-12-04T09:33:59.832Z,2.63
2018-12-04T09:36:27.716Z,2.00
2018-12-04T09:38:55.722Z,2.50
2018-12-04T09:41:23.667Z,2.27
2018-12-04T09:43:51.585Z,2.20
2018-12-04T09:46:19.498Z,2.10
2018-12-04T09:48:47.371Z,1.80
2018-12-04T09:51:15.408Z,1.83
2018-12-04T09:53:43.336Z,1.73
2018-12-04T09:56:11.223Z,1.83
2018-12-04T09:58:39.120Z,2.10
2018-12-04T10:01:07.016Z,2.30
2018-12-04T10:03:34.956Z,2.13
2018-12-04T10:06:03.010Z,1.73
2018-12-04T10:08:30.896Z,2.43
2018-12-04T10:10:58.740Z,2.13
2018-12-04T10:13:26.717Z,2.37
2018-12-04T10:15:54.616Z,2.60
2018-12-04T10:18:22.493Z,2.17
2018-12-04T10:20:50.392Z,1.70
2018-12-04T10:23:18.226Z,2.17
2018-12-04T10:25:51.216Z,2.83
2018-12-04T10:28:19.926Z,2.00
2018-12-04T10:30:53.577Z,2.13
2018-12-04T10:33:21.442Z,1.67
2018-12-04T10:35:49.428Z,2.27
2018-12-04T10:38:17.322Z,2.90
2018-12-04T10:40:45.270Z,2.00
2018-12-04T10:43:13.333Z,2.30
2018-12-04T10:45:41.330Z,2.43
2018-12-04T10:48:09.239Z,2.50
2018-12-04T10:50:37.189Z,2.50
2018-12-04T10:53:05.074Z,2.47
2018-12-04T10:55:32.947Z,2.60
2018-12-04T10:58:00.883Z,2.57
2018-12-04T11:00:34.328Z,2.40
2018-12-04T11:03:07.838Z,2.23
2018-12-04T11:05:35.777Z,2.20
2018-12-04T11:08:03.771Z,2.40
2018-12-04T11:10:31.691Z,1.90
2018-12-04T11:12:59.752Z,2.60
2018-12-04T11:15:27.620Z,4.03
2018-12-04T11:17:55.550Z,2.10
2018-12-04T11:20:23.369Z,2.20
2018-12-04T11:22:51.294Z,2.33
2018-12-04T11:25:19.175Z,2.37
2018-12-04T11:27:47.064Z,1.83
2018-12-04T11:30:14.987Z,2.07
2018-12-04T11:32:42.875Z,1.87
2018-12-04T11:35:10.761Z,2.33
2018-12-04T11:37:38.637Z,2.37
2018-12-04T11:40:06.926Z,2.10
2018-12-04T11:42:34.805Z,2.43
2018-12-04T11:45:02.854Z,2.17
2018-12-04T11:47:30.789Z,2.17
2018-12-04T11:49:58.674Z,2.67
2018-12-04T11:52:26.596Z,2.03
2018-12-04T11:54:54.478Z,2.50
2018-12-04T11:57:22.397Z,2.23
2018-12-04T11:59:50.312Z,2.13
2018-12-04T12:02:18.331Z,2.20
2018-12-04T12:04:46.247Z,2.37
2018-12-04T12:07:20.401Z,1.90
2018-12-04T12:09:44.610Z,2.20
2018-12-04T12:12:12.549Z,2.43
2018-12-04T12:14:40.482Z,2.07
2018-12-04T12:17:08.401Z,2.40
2018-12-04T12:19:36.315Z,2.60
2018-12-04T12:22:04.223Z,2.10
2018-12-04T12:24:32.109Z,2.17
2018-12-04T12:27:00.058Z,2.03
2018-12-04T12:29:27.943Z,2.20
2018-12-04T12:31:55.825Z,2.87
2018-12-04T12:34:23.671Z,2.10
2018-12-04T12:36:51.569Z,2.30
2018-12-04T12:39:19.421Z,2.63
2018-12-04T12:41:47.319Z,2.60
2018-12-04T12:44:15.196Z,3.00
2018-12-04T12:46:43.123Z,1.83
2018-12-04T12:49:10.984Z,1.90
2018-12-04T12:51:38.900Z,1.90
2018-12-04T12:54:06.833Z,1.80
2018-12-04T12:56:34.711Z,2.03
2018-12-04T12:59:02.564Z,2.53
2018-12-04T13:01:30.478Z,2.40
2018-12-04T13:03:58.400Z,2.57
2018-12-04T13:06:26.300Z,2.03
2018-12-04T13:08:54.137Z,2.07
2018-12-04T13:11:22.081Z,2.13
2018-12-04T13:13:50.016Z,2.03
2018-12-04T13:16:17.970Z,2.30
2018-12-04T13:18:45.975Z,1.43
2018-12-04T13:21:13.897Z,2.27
2018-12-04T13:23:41.774Z,2.17
2018-12-04T13:26:09.683Z,1.97
2018-12-04T13:28:37.597Z,1.77
2018-12-04T13:31:05.505Z,2.27
2018-12-04T13:33:33.497Z,1.80
2018-12-04T13:36:01.550Z,1.80
2018-12-04T13:38:29.415Z,2.00
2018-12-04T13:40:57.484Z,1.80
2018-12-04T13:43:25.352Z,1.90
2018-12-04T13:45:53.265Z,2.07
2018-12-04T13:48:21.127Z,2.43
2018-12-04T13:50:49.074Z,2.20
2018-12-04T13:53:16.982Z,2.03
2018-12-04T13:55:44.859Z,2.07
2018-12-04T13:58:12.740Z,2.30
2018-12-04T14:00:40.596Z,1.90
2018-12-04T14:03:08.568Z,1.77
2018-12-04T14:05:36.498Z,1.93
2018-12-04T14:08:04.412Z,1.83
2018-12-04T14:10:32.313Z,2.10
2018-12-04T14:13:00.195Z,1.63
2018-12-04T14:15:28.127Z,1.97
2018-12-04T14:17:56.012Z,2.00
2018-12-04T14:20:23.937Z,2.27
2018-12-04T14:22:51.820Z,1.90
2018-12-04T14:25:19.731Z,2.00
2018-12-04T14:27:49.240Z,2.20
2018-12-04T14:30:17.284Z,2.27
2018-12-04T14:32:45.203Z,2.00
2018-12-04T14:35:13.212Z,2.00
2018-12-04T14:37:41.659Z,1.77
2018-12-04T14:40:09.721Z,2.53
2018-12-04T14:42:37.776Z,2.10
2018-12-04T14:45:06.310Z,2.17
2018-12-04T14:47:34.216Z,2.03
2018-12-04T14:50:02.189Z,2.07
2018-12-04T14:52:30.227Z,1.83
2018-12-04T14:54:58.238Z,2.23
2018-12-04T14:57:26.163Z,2.40
2018-12-04T14:59:54.145Z,2.27
2018-12-04T15:02:22.070Z,1.97
2018-12-04T15:04:50.047Z,2.20
2018-12-04T15:07:17.945Z,1.63
2018-12-04T15:09:45.880Z,1.80
2018-12-04T15:12:13.776Z,2.20
2018-12-04T15:14:46.726Z,2.50
2018-12-04T15:17:14.639Z,2.50
2018-12-04T15:19:42.535Z,2.73
2018-12-04T15:22:10.698Z,2.17
2018-12-04T15:24:38.638Z,2.20
2018-12-04T15:27:06.645Z,2.17
2018-12-04T15:29:34.595Z,3.03
2018-12-04T15:32:02.633Z,2.23
2018-12-04T15:34:30.652Z,2.00
2018-12-04T15:36:58.569Z,2.37
2018-12-04T15:39:26.546Z,2.40
2018-12-04T15:41:54.791Z,4.17
2018-12-04T15:44:22.750Z,2.23
2018-12-04T15:46:50.647Z,2.40
2018-12-04T15:49:18.582Z,1.93
2018-12-04T15:51:46.457Z,2.07
2018-12-04T15:54:14.424Z,1.93
2018-12-04T15:56:42.318Z,1.40
2018-12-04T15:59:10.217Z,2.00
2018-12-04T16:01:38.160Z,1.73
2018-12-04T16:04:06.060Z,2.03
2018-12-04T16:06:35.437Z,2.23
2018-12-04T16:09:06.145Z,1.90
2018-12-04T16:11:34.104Z,2.00
2018-12-04T16:14:02.005Z,1.90
2018-12-04T16:16:29.902Z,2.00
2018-12-04T16:19:00.150Z,2.70
2018-12-04T16:21:40.591Z,2.83
2018-12-04T16:24:08.626Z,3.27
2018-12-04T16:26:36.540Z,2.50
2018-12-04T16:29:04.441Z,2.90
2018-12-04T16:31:32.361Z,2.90
2018-12-04T16:34:00.263Z,2.77
2018-12-04T16:36:28.301Z,3.90
2018-12-04T16:38:56.206Z,2.97
2018-12-04T16:41:24.081Z,3.43
2018-12-04T16:43:52.021Z,2.27
2018-12-04T16:46:19.928Z,2.40
2018-12-04T16:48:47.872Z,2.17
2018-12-04T16:51:15.781Z,1.90
2018-12-04T16:53:43.691Z,2.00
2018-12-04T16:56:11.633Z,2.20
2018-12-04T16:58:39.655Z,2.50
2018-12-04T17:01:07.661Z,2.43
2018-12-04T17:03:35.564Z,2.60
2018-12-04T17:06:04.903Z,2.50
2018-12-04T17:08:33.276Z,2.40
2018-12-04T17:11:01.188Z,2.57
2018-12-04T17:13:29.157Z,2.40
2018-12-04T17:15:57.915Z,2.33
2018-12-04T17:18:25.862Z,2.53
2018-12-04T17:20:53.772Z,3.03
2018-12-04T17:23:21.669Z,2.97
2018-12-04T17:25:49.667Z,2.90
2018-12-04T17:28:17.592Z,2.90
2018-12-04T17:30:45.461Z,2.70
2018-12-04T17:33:13.787Z,2.97
2018-12-04T17:35:41.714Z,3.37
2018-12-04T17:38:09.827Z,3.73
2018-12-04T17:40:37.780Z,3.30
2018-12-04T17:43:06.092Z,2.97
2018-12-04T17:45:34.089Z,3.33
2018-12-04T17:48:01.994Z,2.60
2018-12-04T17:50:30.039Z,3.23
2018-12-04T17:52:58.065Z,3.33
2018-12-04T17:55:25.950Z,2.70
2018-12-04T17:57:53.820Z,3.20
2018-12-04T18:00:21.737Z,4.20
2018-12-04T18:02:49.659Z,3.53
2018-12-04T18:05:17.579Z,3.83
2018-12-04T18:07:45.544Z,4.60
2018-12-04T18:10:13.477Z,3.10
2018-12-04T18:12:41.398Z,3.40
2018-12-04T18:15:09.512Z,2.97
2018-12-04T18:17:37.437Z,2.70
2018-12-04T18:20:05.977Z,3.50
2018-12-04T18:22:33.936Z,3.20
2018-12-04T18:25:01.840Z,3.63
2018-12-04T18:27:29.727Z,3.63
2018-12-04T18:29:57.652Z,4.87
2018-12-04T18:32:25.655Z,5.20
2018-12-04T18:34:53.711Z,5.50
2018-12-04T18:37:21.552Z,4.00
2018-12-04T18:39:49.587Z,4.00
2018-12-04T18:42:17.484Z,4.10
2018-12-04T18:44:45.505Z,3.83
2018-12-04T18:47:13.488Z,3.33
2018-12-04T18:49:41.361Z,2.50
2018-12-04T18:52:09.286Z,3.20
2018-12-04T18:54:37.234Z,2.80
2018-12-04T18:57:05.263Z,3.70
2018-12-04T19:02:08.042Z,3.07
2018-12-04T19:04:35.947Z,3.67
2018-12-04T19:07:04.787Z,4.63
2018-12-04T19:09:32.848Z,4.53
2018-12-04T19:12:00.762Z,4.67
2018-12-04T19:14:28.708Z,4.00
2018-12-04T19:16:56.645Z,3.63
2018-12-04T19:19:24.648Z,5.27
2018-12-04T19:21:52.619Z,4.67
2018-12-04T19:24:20.617Z,4.57
2018-12-04T19:26:48.532Z,4.33
2018-12-04T19:29:16.456Z,4.90
2018-12-04T19:31:44.624Z,4.73
2018-12-04T19:34:12.715Z,5.50
2018-12-04T19:36:40.878Z,5.60
2018-12-04T19:39:09.248Z,6.00
2018-12-04T19:41:37.335Z,5.50
2018-12-04T19:44:05.321Z,5.40
2018-12-04T19:46:33.400Z,4.33
2018-12-04T19:49:01.567Z,4.40
2018-12-04T19:51:29.539Z,4.87
2018-12-04T19:53:57.452Z,4.60
2018-12-04T19:56:25.487Z,4.47
2018-12-04T19:58:53.404Z,4.40
2018-12-04T20:01:25.780Z,4.80
2018-12-04T20:03:54.412Z,4.87
2018-12-04T20:06:22.462Z,5.50
2018-12-04T20:08:53.472Z,5.80
2018-12-04T20:11:21.510Z,6.07
2018-12-04T20:13:49.721Z,5.70
2018-12-04T20:16:17.700Z,5.40
2018-12-04T20:18:46.604Z,6.13
2018-12-04T20:21:14.793Z,5.00
2018-12-04T20:23:42.821Z,4.53
2018-12-04T20:26:10.888Z,6.07
2018-12-04T20:28:38.784Z,6.27
2018-12-04T20:31:06.787Z,5.63
2018-12-04T20:33:34.830Z,6.17
2018-12-04T20:36:02.806Z,6.97
2018-12-04T20:38:31.633Z,6.10
2018-12-04T20:40:59.516Z,6.27
2018-12-04T20:43:27.607Z,5.93
2018-12-04T20:45:55.527Z,5.73
2018-12-04T20:48:23.514Z,5.43
2018-12-04T20:50:51.565Z,5.37
2018-12-04T20:53:19.452Z,5.33
2018-12-04T20:55:47.517Z,6.17
2018-12-04T20:58:15.625Z,5.33
2018-12-04T21:00:43.531Z,6.20
2018-12-04T21:03:17.372Z,6.40
2018-12-04T21:05:45.411Z,7.60
2018-12-04T21:08:13.265Z,5.80
2018-12-04T21:10:41.288Z,6.47
2018-12-04T21:13:14.441Z,6.43
2018-12-04T21:15:39.265Z,6.13
2018-12-04T21:18:07.236Z,6.13
2018-12-04T21:20:35.112Z,5.97
2018-12-04T21:23:03.124Z,5.23
2018-12-04T21:25:31.054Z,5.13
2018-12-04T21:28:05.430Z,6.13
2018-12-04T21:30:39.021Z,6.80
2018-12-04T21:33:12.543Z,5.57
2018-12-04T21:35:46.161Z,5.43
2018-12-04T21:38:19.753Z,6.07
2018-12-04T21:40:55.053Z,8.17
2018-12-04T21:43:28.828Z,5.83
2018-12-04T21:46:02.363Z,5.53
2018-12-04T21:48:30.296Z,5.83
2018-12-04T21:50:58.166Z,5.17
2018-12-04T21:53:26.102Z,5.97
2018-12-04T21:55:54.033Z,5.53
2018-12-04T21:58:21.944Z,6.07
2018-12-04T22:00:49.950Z,4.80
2018-12-04T22:03:17.895Z,4.93
2018-12-04T22:05:45.868Z,5.50
2018-12-04T22:08:13.742Z,6.57
2018-12-04T22:10:41.785Z,7.00
2018-12-04T22:13:09.651Z,7.50
2018-12-04T22:15:37.516Z,7.10
2018-12-04T22:18:05.509Z,8.47
2018-12-04T22:20:33.761Z,9.77
2018-12-04T22:23:01.640Z,8.57
2018-12-04T22:25:29.534Z,9.10
2018-12-04T22:27:57.442Z,7.40
2018-12-04T22:30:25.352Z,8.23
2018-12-04T22:32:53.264Z,10.97
2018-12-04T22:35:21.173Z,9.40
2018-12-04T22:37:49.117Z,8.70
2018-12-04T22:40:17.029Z,10.97
2018-12-04T22:42:44.913Z,9.13
2018-12-04T22:45:18.722Z,7.90
2018-12-04T22:47:46.646Z,7.87
2018-12-04T22:50:14.600Z,10.40
2018-12-04T22:52:42.597Z,8.00
2018-12-04T22:55:10.546Z,6.87
2018-12-04T22:57:38.460Z,8.20
2018-12-04T23:00:14.779Z,6.40
2018-12-04T23:02:42.748Z,6.60
2018-12-04T23:05:10.666Z,7.20
2018-12-04T23:07:38.613Z,5.90
2018-12-04T23:10:07.051Z,5.00
2018-12-04T23:12:35.220Z,6.20
2018-12-04T23:15:03.305Z,5.30
2018-12-04T23:17:31.244Z,5.77
2018-12-04T23:19:59.141Z,5.60
2018-12-04T23:22:27.076Z,5.63
2018-12-04T23:24:55.117Z,4.93
2018-12-04T23:27:23.077Z,5.17
2018-12-04T23:29:50.991Z,6.00
2018-12-04T23:32:18.930Z,4.87
2018-12-04T23:34:46.855Z,5.50
2018-12-04T23:37:14.806Z,5.63
2018-12-04T23:39:42.821Z,5.83
2018-12-04T23:42:10.701Z,5.40
2018-12-04T23:44:38.677Z,5.03
2018-12-04T23:47:06.651Z,5.75
2018-12-04T23:49:34.551Z,5.00
2018-12-04T23:52:02.583Z,5.83
2018-12-04T23:54:30.517Z,5.17
2018-12-04T23:56:58.464Z,5.95
2018-12-04T23:59:26.431Z,5.67
